createdAt,value
2018-09-21T00:01:52.300Z,15.91
2018-09-21T00:04:21.406Z,15.82
2018-09-21T00:06:50.957Z,15.78
2018-09-21T00:09:20.098Z,15.76
2018-09-21T00:11:49.291Z,15.89
2018-09-21T00:14:18.506Z,15.81
2018-09-21T00:16:47.622Z,15.69
2018-09-21T00:19:16.754Z,15.68
2018-09-21T00:21:45.886Z,15.66
2018-09-21T00:24:15.046Z,15.53
2018-09-21T00:26:43.889Z,15.39
2018-09-21T00:29:13.029Z,15.31
2018-09-21T00:31:42.186Z,15.38
2018-09-21T00:34:11.330Z,15.39
2018-09-21T00:36:40.482Z,15.41
2018-09-21T00:39:10.594Z,15.40
2018-09-21T00:41:39.785Z,15.25
2018-09-21T00:44:09.010Z,15.11
2018-09-21T00:46:38.305Z,14.94
2018-09-21T00:49:07.626Z,14.99
2018-09-21T00:51:36.986Z,14.87
2018-09-21T00:54:06.591Z,14.80
2018-09-21T00:56:35.906Z,14.79
2018-09-21T00:59:05.102Z,14.84
2018-09-21T01:01:34.339Z,14.90
2018-09-21T01:04:03.676Z,14.95
2018-09-21T01:06:32.814Z,14.90
2018-09-21T01:09:02.762Z,14.93
2018-09-21T01:11:31.929Z,14.87
2018-09-21T01:14:01.101Z,14.87
2018-09-21T01:16:30.274Z,14.82
2018-09-21T01:18:59.927Z,14.67
2018-09-21T01:21:29.062Z,14.75
2018-09-21T01:23:58.181Z,14.80
2018-09-21T01:26:27.325Z,14.78
2018-09-21T01:28:57.110Z,14.65
2018-09-21T01:31:26.246Z,14.49
2018-09-21T01:33:55.411Z,14.42
2018-09-21T01:36:25.197Z,14.51
2018-09-21T01:38:54.315Z,14.70
2018-09-21T01:41:23.438Z,14.58
2018-09-21T01:43:52.581Z,14.61
2018-09-21T01:46:21.706Z,14.72
2018-09-21T01:48:51.376Z,14.83
2018-09-21T01:51:20.554Z,14.94
2018-09-21T01:53:49.706Z,14.97
2018-09-21T01:56:20.229Z,14.93
2018-09-21T01:58:49.445Z,14.87
2018-09-21T02:01:18.721Z,14.95
2018-09-21T02:03:48.001Z,14.89
2018-09-21T02:06:17.245Z,14.74
2018-09-21T02:08:46.674Z,14.66
2018-09-21T02:11:16.717Z,14.62
2018-09-21T02:13:46.450Z,14.66
2018-09-21T02:16:15.598Z,14.52
2018-09-21T02:18:44.770Z,14.41
2018-09-21T02:21:13.930Z,14.43
2018-09-21T02:23:43.498Z,14.41
2018-09-21T02:26:13.233Z,14.46
2018-09-21T02:28:42.389Z,14.37
2018-09-21T02:31:11.662Z,14.30
2018-09-21T02:33:40.782Z,14.33
2018-09-21T02:36:10.491Z,14.36
2018-09-21T02:38:39.989Z,14.30
2018-09-21T02:41:09.210Z,14.24
2018-09-21T02:43:38.403Z,14.23
2018-09-21T02:46:07.582Z,14.06
2018-09-21T02:48:36.789Z,13.94
2018-09-21T02:51:05.940Z,13.82
2018-09-21T02:53:35.087Z,13.77
2018-09-21T02:56:04.761Z,13.77
2018-09-21T02:58:34.538Z,13.63
2018-09-21T03:01:03.411Z,13.59
2018-09-21T03:03:32.546Z,13.67
2018-09-21T03:06:01.683Z,13.76
2018-09-21T03:08:31.593Z,13.74
2018-09-21T03:11:00.737Z,13.75
2018-09-21T03:13:29.899Z,13.70
2018-09-21T03:15:59.038Z,13.62
2018-09-21T03:18:28.791Z,13.54
2018-09-21T03:20:57.932Z,13.51
2018-09-21T03:23:27.065Z,13.48
2018-09-21T03:25:56.201Z,13.49
2018-09-21T03:28:25.329Z,13.51
2018-09-21T03:30:54.482Z,13.42
2018-09-21T03:33:23.618Z,13.45
2018-09-21T03:35:53.301Z,13.38
2018-09-21T03:38:22.425Z,13.38
2018-09-21T03:40:51.558Z,13.51
2018-09-21T03:43:20.683Z,13.36
2018-09-21T03:45:49.825Z,13.26
2018-09-21T03:48:19.011Z,13.25
2018-09-21T03:50:48.190Z,13.29
2018-09-21T03:53:17.419Z,13.59
2018-09-21T03:55:46.629Z,13.41
2018-09-21T03:58:15.930Z,13.46
2018-09-21T04:00:45.099Z,13.47
2018-09-21T04:03:14.361Z,13.45
2018-09-21T04:05:43.651Z,13.37
2018-09-21T04:08:13.239Z,13.38
2018-09-21T04:10:42.443Z,13.23
2018-09-21T04:13:11.675Z,13.11
2018-09-21T04:15:41.003Z,13.03
2018-09-21T04:18:09.989Z,13.08
2018-09-21T04:20:39.530Z,12.95
2018-09-21T04:23:08.685Z,13.01
2018-09-21T04:25:38.034Z,13.05
2018-09-21T04:28:07.174Z,12.96
2018-09-21T04:30:36.357Z,12.95
2018-09-21T04:33:05.509Z,12.85
2018-09-21T04:35:34.654Z,12.92
2018-09-21T04:38:03.841Z,12.93
2018-09-21T04:40:32.979Z,12.99
2018-09-21T04:43:02.150Z,12.85
2018-09-21T04:45:31.350Z,12.73
2018-09-21T04:48:00.894Z,12.67
2018-09-21T04:50:30.310Z,12.65
2018-09-21T04:52:59.447Z,12.64
2018-09-21T04:55:29.198Z,12.66
2018-09-21T04:57:58.406Z,12.71
2018-09-21T05:00:27.539Z,12.81
2018-09-21T05:02:56.658Z,12.90
2018-09-21T05:05:26.518Z,12.84
2018-09-21T05:07:55.645Z,12.84
2018-09-21T05:10:24.770Z,12.88
2018-09-21T05:12:54.305Z,13.10
2018-09-21T05:15:29.943Z,13.09
2018-09-21T05:17:59.090Z,13.14
2018-09-21T05:20:28.250Z,13.36
2018-09-21T05:22:57.506Z,14.00
2018-09-21T05:25:26.906Z,14.27
2018-09-21T05:27:56.248Z,14.09
2018-09-21T05:30:25.682Z,13.75
2018-09-21T05:32:54.779Z,13.54
2018-09-21T05:35:23.918Z,13.54
2018-09-21T05:37:53.634Z,13.60
2018-09-21T05:40:22.846Z,13.56
2018-09-21T05:42:52.137Z,13.58
2018-09-21T05:45:21.474Z,13.53
2018-09-21T05:47:50.699Z,13.62
2018-09-21T05:50:19.842Z,13.58
2018-09-21T05:52:49.061Z,13.58
2018-09-21T05:55:18.244Z,13.71
2018-09-21T05:57:47.437Z,13.88
2018-09-21T06:00:17.892Z,14.02
2018-09-21T06:02:47.169Z,14.32
2018-09-21T06:05:16.718Z,15.04
2018-09-21T06:07:45.995Z,15.90
2018-09-21T06:10:15.243Z,16.12
2018-09-21T06:12:44.952Z,16.52
2018-09-21T06:15:14.213Z,16.97
2018-09-21T06:17:43.454Z,17.51
2018-09-21T06:20:12.821Z,18.17
2018-09-21T06:22:45.154Z,19.05
2018-09-21T06:25:11.555Z,19.32
2018-09-21T06:27:41.458Z,19.64
2018-09-21T06:30:11.372Z,20.05
2018-09-21T06:32:41.277Z,20.43
2018-09-21T06:35:10.567Z,20.54
2018-09-21T06:37:39.946Z,21.04
2018-09-21T06:40:09.190Z,20.67
2018-09-21T06:42:38.450Z,20.89
2018-09-21T06:45:08.110Z,20.52
2018-09-21T06:47:37.318Z,20.66
2018-09-21T06:50:07.143Z,21.49
2018-09-21T06:52:36.416Z,22.72
2018-09-21T06:55:06.553Z,23.30
2018-09-21T06:57:36.181Z,23.69
2018-09-21T07:00:05.570Z,24.17
2018-09-21T07:02:34.871Z,24.61
2018-09-21T07:05:12.506Z,25.09
2018-09-21T07:07:42.889Z,25.74
2018-09-21T07:10:12.221Z,26.16
2018-09-21T07:12:42.110Z,25.35
2018-09-21T07:15:11.658Z,24.65
2018-09-21T07:17:41.548Z,24.99
2018-09-21T07:20:10.733Z,25.50
2018-09-21T07:22:41.066Z,26.69
2018-09-21T07:25:10.214Z,28.02
2018-09-21T07:27:39.349Z,29.07
2018-09-21T07:30:08.538Z,29.28
2018-09-21T07:32:38.083Z,30.32
2018-09-21T07:35:07.386Z,31.57
2018-09-21T07:37:36.589Z,31.13
2018-09-21T07:40:06.398Z,29.32
2018-09-21T07:42:35.522Z,29.86
2018-09-21T07:45:04.713Z,30.36
2018-09-21T07:47:33.914Z,30.90
2018-09-21T07:50:03.106Z,32.76
2018-09-21T07:52:32.253Z,32.72
2018-09-21T07:55:01.602Z,33.09
2018-09-21T07:57:30.794Z,32.76
2018-09-21T07:59:59.950Z,33.20
2018-09-21T08:02:29.199Z,31.21
2018-09-21T08:04:59.014Z,30.67
2018-09-21T08:07:28.270Z,30.77
2018-09-21T08:09:57.496Z,30.52
2018-09-21T08:12:26.317Z,31.07
2018-09-21T08:14:55.461Z,31.36
2018-09-21T08:17:24.655Z,30.57
2018-09-21T08:19:54.241Z,29.26
2018-09-21T08:22:23.543Z,26.81
2018-09-21T08:24:52.711Z,26.18
2018-09-21T08:27:21.886Z,26.37
2018-09-21T08:29:51.145Z,26.95
2018-09-21T08:32:20.404Z,26.70
2018-09-21T08:34:49.570Z,26.98
2018-09-21T08:37:18.852Z,27.94
2018-09-21T08:39:47.884Z,29.00
2018-09-21T08:42:17.032Z,30.06
2018-09-21T08:44:46.168Z,31.06
2018-09-21T08:47:15.301Z,32.04
2018-09-21T08:49:44.517Z,32.66
2018-09-21T08:52:13.674Z,31.20
2018-09-21T08:54:43.107Z,30.55
2018-09-21T08:57:12.063Z,30.30
2018-09-21T08:59:41.419Z,31.90
2018-09-21T09:02:10.297Z,33.06
2018-09-21T09:04:39.826Z,37.06
2018-09-21T09:07:09.202Z,39.41
2018-09-21T09:09:38.645Z,37.60
2018-09-21T09:12:07.947Z,31.76
2018-09-21T09:14:37.646Z,33.00
2018-09-21T09:17:06.631Z,33.47
2018-09-21T09:19:35.809Z,34.47
2018-09-21T09:22:05.770Z,33.49
2018-09-21T09:24:35.013Z,31.83
2018-09-21T09:27:03.830Z,30.98
2018-09-21T09:29:33.025Z,31.29
2018-09-21T09:32:02.207Z,30.89
2018-09-21T09:34:31.345Z,31.60
2018-09-21T09:37:00.511Z,30.60
2018-09-21T09:39:29.615Z,30.62
2018-09-21T09:41:58.765Z,31.84
2018-09-21T09:44:27.882Z,31.99
2018-09-21T09:46:57.507Z,31.42
2018-09-21T09:49:26.758Z,31.70
2018-09-21T09:51:55.938Z,31.62
2018-09-21T09:54:25.093Z,32.87
2018-09-21T09:56:54.176Z,33.42
2018-09-21T09:59:23.357Z,36.15
2018-09-21T10:01:52.595Z,36.21
2018-09-21T10:04:22.204Z,37.04
2018-09-21T10:06:51.459Z,38.58
2018-09-21T10:09:20.884Z,36.44
2018-09-21T10:11:50.277Z,32.31
2018-09-21T10:14:19.505Z,32.42
2018-09-21T10:16:48.785Z,31.82
2018-09-21T10:19:17.905Z,30.45
2018-09-21T10:21:47.102Z,30.20
2018-09-21T10:24:16.374Z,29.95
2018-09-21T10:26:45.681Z,29.27
2018-09-21T10:29:14.765Z,29.50
2018-09-21T10:31:43.914Z,29.06
2018-09-21T10:34:13.027Z,29.22
2018-09-21T10:36:42.143Z,28.51
2018-09-21T10:39:11.340Z,28.49
2018-09-21T10:41:40.406Z,28.51
2018-09-21T10:44:09.567Z,28.73
2018-09-21T10:46:38.738Z,29.28
2018-09-21T10:49:07.950Z,29.60
2018-09-21T10:51:37.449Z,29.09
2018-09-21T10:54:06.534Z,29.06
2018-09-21T10:56:35.712Z,29.70
2018-09-21T10:59:04.895Z,30.85
2018-09-21T11:01:34.033Z,32.78
2018-09-21T11:04:03.617Z,33.26
2018-09-21T11:06:32.858Z,33.41
2018-09-21T11:09:02.715Z,32.31
2018-09-21T11:11:31.935Z,33.16
2018-09-21T11:14:01.178Z,33.58
2018-09-21T11:16:30.414Z,32.10
2018-09-21T11:19:00.154Z,31.45
2018-09-21T11:21:30.526Z,31.02
2018-09-21T11:23:59.824Z,31.29
2018-09-21T11:26:29.085Z,30.87
2018-09-21T11:28:58.286Z,30.62
2018-09-21T11:31:27.909Z,30.84
2018-09-21T11:33:57.057Z,29.20
2018-09-21T11:36:26.218Z,28.53
2018-09-21T11:38:55.362Z,28.27
2018-09-21T11:41:24.502Z,28.06
2018-09-21T11:43:53.696Z,28.23
2018-09-21T11:46:22.850Z,28.41
2018-09-21T11:48:51.981Z,28.42
2018-09-21T11:51:21.112Z,28.12
2018-09-21T11:53:50.333Z,27.86
2018-09-21T11:56:19.741Z,27.71
2018-09-21T11:58:48.918Z,27.34
2018-09-21T12:01:18.069Z,27.45
2018-09-21T12:03:47.601Z,27.39
2018-09-21T12:06:16.762Z,27.60
2018-09-21T12:08:46.012Z,27.70
2018-09-21T12:11:15.192Z,27.77
2018-09-21T12:13:44.313Z,27.75
2018-09-21T12:16:13.460Z,28.29
2018-09-21T12:18:42.830Z,28.31
2018-09-21T12:21:12.205Z,29.50
2018-09-21T12:23:42.198Z,29.47
2018-09-21T12:26:11.434Z,28.86
2018-09-21T12:28:40.598Z,28.92
2018-09-21T12:31:09.806Z,29.15
2018-09-21T12:33:38.930Z,28.51
2018-09-21T12:36:09.225Z,27.59
2018-09-21T12:38:38.312Z,27.87
2018-09-21T12:41:07.426Z,27.54
2018-09-21T12:43:36.665Z,27.28
2018-09-21T12:46:10.563Z,27.73
2018-09-21T12:48:39.746Z,27.41
2018-09-21T12:51:08.890Z,27.15
2018-09-21T12:53:38.039Z,27.14
2018-09-21T12:56:07.198Z,27.26
2018-09-21T12:58:37.042Z,27.48
2018-09-21T13:01:06.174Z,27.47
2018-09-21T13:03:35.392Z,27.08
2018-09-21T13:06:04.547Z,27.01
2018-09-21T13:08:34.121Z,26.64
2018-09-21T13:11:03.263Z,26.32
2018-09-21T13:13:32.475Z,26.24
2018-09-21T13:16:01.630Z,26.16
2018-09-21T13:18:31.379Z,25.93
2018-09-21T13:21:00.522Z,25.92
2018-09-21T13:23:29.806Z,26.03
2018-09-21T13:25:59.507Z,26.07
2018-09-21T13:28:28.711Z,26.31
2018-09-21T13:30:58.354Z,26.31
2018-09-21T13:33:28.229Z,26.60
2018-09-21T13:35:57.382Z,26.68
2018-09-21T13:38:26.526Z,26.20
2018-09-21T13:40:55.706Z,26.14
2018-09-21T13:43:24.830Z,25.90
2018-09-21T13:45:53.965Z,25.85
2018-09-21T13:48:23.821Z,25.69
2018-09-21T13:50:52.933Z,25.71
2018-09-21T13:53:22.873Z,25.58
2018-09-21T13:55:52.027Z,25.51
2018-09-21T13:58:21.146Z,25.49
2018-09-21T14:00:50.629Z,25.36
2018-09-21T14:03:19.782Z,25.37
2018-09-21T14:05:48.954Z,25.39
2018-09-21T14:08:18.137Z,25.41
2018-09-21T14:10:47.286Z,25.53
2018-09-21T14:13:16.450Z,25.55
2018-09-21T14:15:45.578Z,25.42
2018-09-21T14:18:14.748Z,25.52
2018-09-21T14:20:44.508Z,25.77
2018-09-21T14:23:13.629Z,25.75
2018-09-21T14:25:42.989Z,25.69
2018-09-21T14:28:12.814Z,25.80
2018-09-21T14:30:41.941Z,25.72
2018-09-21T14:33:11.169Z,25.80
2018-09-21T14:35:40.323Z,25.64
2018-09-21T14:38:09.567Z,25.49
2018-09-21T14:40:38.811Z,25.39
2018-09-21T14:43:07.996Z,25.45
2018-09-21T14:45:37.053Z,25.35
2018-09-21T14:48:06.306Z,25.45
2018-09-21T14:50:35.888Z,25.36
2018-09-21T14:53:05.119Z,25.59
2018-09-21T14:55:34.282Z,25.60
2018-09-21T14:58:03.458Z,25.64
2018-09-21T15:00:32.583Z,25.70
2018-09-21T15:03:01.756Z,25.54
2018-09-21T15:05:30.930Z,25.17
2018-09-21T15:08:00.046Z,25.17
2018-09-21T15:10:29.212Z,25.06
2018-09-21T15:12:58.338Z,24.97
2018-09-21T15:15:27.485Z,25.00
2018-09-21T15:17:56.632Z,24.92
2018-09-21T15:20:25.838Z,24.79
2018-09-21T15:22:54.989Z,24.73
2018-09-21T15:25:24.270Z,24.75
2018-09-21T15:27:53.640Z,24.68
2018-09-21T15:30:23.259Z,24.71
2018-09-21T15:32:53.334Z,24.64
2018-09-21T15:35:22.918Z,24.56
2018-09-21T15:37:53.478Z,24.50
2018-09-21T15:40:22.654Z,24.45
2018-09-21T15:42:51.999Z,24.39
2018-09-21T15:45:21.178Z,24.33
2018-09-21T15:47:50.263Z,24.24
2018-09-21T15:50:19.442Z,23.41
2018-09-21T15:52:48.693Z,22.05
2018-09-21T15:55:17.796Z,21.39
2018-09-21T15:57:46.924Z,20.12
2018-09-21T16:00:16.427Z,18.25
2018-09-21T16:02:45.570Z,17.76
2018-09-21T16:05:14.823Z,17.58
2018-09-21T16:07:44.080Z,16.88
2018-09-21T16:10:13.206Z,16.55
2018-09-21T16:12:42.338Z,16.41
2018-09-21T16:15:11.457Z,16.26
2018-09-21T16:17:40.937Z,16.12
2018-09-21T16:20:10.118Z,16.08
2018-09-21T16:22:39.254Z,15.99
2018-09-21T16:25:08.407Z,16.04
2018-09-21T16:27:37.565Z,16.03
2018-09-21T16:30:08.116Z,15.92
2018-09-21T16:32:37.481Z,15.91
2018-09-21T16:35:07.090Z,15.83
2018-09-21T16:37:36.203Z,15.79
2018-09-21T16:40:05.407Z,15.69
2018-09-21T16:42:34.538Z,15.67
2018-09-21T16:45:04.076Z,15.65
2018-09-21T16:47:33.211Z,15.61
2018-09-21T16:50:02.380Z,15.56
2018-09-21T16:52:31.601Z,15.56
2018-09-21T16:55:01.016Z,15.59
2018-09-21T16:57:31.235Z,15.64
2018-09-21T17:00:00.110Z,15.61
2018-09-21T17:02:29.214Z,15.56
2018-09-21T17:04:58.919Z,15.37
2018-09-21T17:07:27.775Z,15.40
2018-09-21T17:09:56.595Z,15.25
2018-09-21T17:12:26.038Z,15.20
2018-09-21T17:14:55.181Z,15.15
2018-09-21T17:17:24.647Z,15.01
2018-09-21T17:19:54.377Z,14.64
2018-09-21T17:22:24.055Z,14.26
2018-09-21T17:24:54.133Z,14.18
2018-09-21T17:27:24.072Z,14.16
2018-09-21T17:29:54.009Z,14.22
2018-09-21T17:32:23.511Z,14.19
2018-09-21T17:34:52.828Z,14.26
2018-09-21T17:37:22.789Z,14.33
2018-09-21T17:39:51.949Z,14.38
2018-09-21T17:42:21.798Z,14.35
2018-09-21T17:44:51.091Z,14.40
2018-09-21T17:47:20.267Z,14.44
2018-09-21T17:49:49.774Z,14.47
2018-09-21T17:52:18.902Z,14.44
2018-09-21T17:54:48.045Z,14.45
2018-09-21T17:57:17.177Z,14.48
2018-09-21T17:59:46.349Z,14.51
2018-09-21T18:02:15.980Z,14.55
2018-09-21T18:04:45.863Z,14.55
2018-09-21T18:07:20.983Z,14.53
2018-09-21T18:09:52.072Z,14.48
2018-09-21T18:12:21.410Z,14.49
2018-09-21T18:14:51.557Z,14.50
2018-09-21T18:17:20.758Z,14.48
2018-09-21T18:19:49.958Z,14.45
2018-09-21T18:22:19.119Z,14.38
2018-09-21T18:24:48.640Z,14.29
2018-09-21T18:27:18.339Z,14.23
2018-09-21T18:29:47.515Z,14.18
2018-09-21T18:32:16.662Z,14.07
2018-09-21T18:34:45.837Z,14.06
2018-09-21T18:37:15.020Z,13.99
2018-09-21T18:39:44.910Z,13.90
2018-09-21T18:42:14.039Z,13.80
2018-09-21T18:44:45.122Z,13.79
2018-09-21T18:47:15.571Z,13.88
2018-09-21T18:49:44.791Z,13.89
2018-09-21T18:52:13.995Z,13.80
2018-09-21T18:54:44.089Z,13.71
2018-09-21T18:57:13.290Z,13.60
2018-09-21T18:59:42.442Z,13.46
2018-09-21T19:02:11.671Z,13.35
2018-09-21T19:04:40.933Z,13.39
2018-09-21T19:07:15.286Z,13.40
2018-09-21T19:09:44.445Z,13.34
2018-09-21T19:12:14.525Z,13.30
2018-09-21T19:14:43.784Z,13.33
2018-09-21T19:17:13.481Z,13.33
2018-09-21T19:19:42.626Z,13.27
2018-09-21T19:22:11.777Z,13.22
2018-09-21T19:24:41.464Z,13.22
2018-09-21T19:27:10.729Z,13.21
2018-09-21T19:29:39.666Z,13.19
2018-09-21T19:32:09.334Z,13.16
2018-09-21T19:34:40.268Z,13.09
2018-09-21T19:37:09.415Z,13.07
2018-09-21T19:39:38.768Z,13.34
2018-09-21T19:42:08.239Z,13.29
2018-09-21T19:44:37.538Z,13.29
2018-09-21T19:47:06.870Z,13.31
2018-09-21T19:49:36.174Z,13.25
2018-09-21T19:52:05.439Z,13.19
2018-09-21T19:54:34.504Z,13.22
2018-09-21T19:57:03.622Z,13.21
2018-09-21T19:59:32.806Z,13.22
2018-09-21T20:02:02.781Z,13.23
2018-09-21T20:04:31.953Z,13.24
2018-09-21T20:07:01.098Z,13.34
2018-09-21T20:09:30.530Z,13.39
2018-09-21T20:11:59.885Z,13.39
2018-09-21T20:14:29.773Z,13.42
2018-09-21T20:16:59.134Z,13.41
2018-09-21T20:19:27.934Z,13.34
2018-09-21T20:21:58.842Z,13.46
2018-09-21T20:24:28.370Z,13.52
2018-09-21T20:26:57.691Z,13.60
2018-09-21T20:29:26.868Z,13.68
2018-09-21T20:32:01.606Z,13.86
2018-09-21T20:34:31.066Z,13.84
2018-09-21T20:37:00.190Z,13.79
2018-09-21T20:39:29.386Z,13.78
2018-09-21T20:41:58.506Z,13.81
2018-09-21T20:44:28.725Z,13.84
2018-09-21T20:46:58.195Z,13.81
2018-09-21T20:49:27.344Z,13.84
2018-09-21T20:51:56.506Z,13.84
2018-09-21T20:54:26.098Z,13.82
2018-09-21T20:56:54.948Z,13.79
2018-09-21T20:59:24.715Z,13.82
2018-09-21T21:01:53.753Z,13.85
2018-09-21T21:04:24.028Z,13.82
2018-09-21T21:06:53.446Z,13.87
2018-09-21T21:09:23.070Z,13.79
2018-09-21T21:11:52.549Z,13.82
2018-09-21T21:14:21.800Z,13.88
2018-09-21T21:16:51.054Z,13.87
2018-09-21T21:19:20.321Z,13.87
2018-09-21T21:21:49.719Z,13.89
2018-09-21T21:24:19.443Z,13.93
2018-09-21T21:26:48.572Z,14.00
2018-09-21T21:29:17.714Z,13.99
2018-09-21T21:31:47.139Z,13.96
2018-09-21T21:34:16.392Z,13.97
2018-09-21T21:36:45.521Z,13.95
2018-09-21T21:39:14.766Z,13.96
2018-09-21T21:41:44.594Z,13.93
2018-09-21T21:44:14.019Z,13.97
2018-09-21T21:46:43.145Z,13.95
2018-09-21T21:49:12.321Z,13.90
2018-09-21T21:51:41.398Z,13.84
2018-09-21T21:54:10.490Z,13.87
2018-09-21T21:56:39.661Z,13.81
2018-09-21T21:59:09.394Z,13.81
2018-09-21T22:01:43.801Z,13.78
2018-09-21T22:04:13.337Z,13.82
2018-09-21T22:06:43.354Z,13.83
2018-09-21T22:09:13.374Z,13.93
2018-09-21T22:13:49.748Z,13.85
2018-09-21T22:16:18.647Z,13.72
2018-09-21T22:18:48.225Z,13.71
2018-09-21T22:21:17.339Z,13.70
2018-09-21T22:23:46.458Z,13.69
2018-09-21T22:26:16.338Z,13.63
2018-09-21T22:28:45.675Z,13.58
2018-09-21T22:31:14.811Z,13.69
2018-09-21T22:33:43.908Z,13.62
2018-09-21T22:36:12.990Z,13.55
2018-09-21T22:38:42.130Z,13.56
2018-09-21T22:41:11.238Z,13.48
2018-09-21T22:43:40.846Z,13.49
2018-09-21T22:46:09.959Z,13.50
2018-09-21T22:48:39.063Z,13.50
2018-09-21T22:51:09.602Z,13.61
2018-09-21T22:53:38.735Z,13.67
2018-09-21T22:56:08.207Z,13.66
2018-09-21T22:58:38.520Z,13.56
2018-09-21T23:01:08.410Z,13.52
2018-09-21T23:03:37.539Z,13.61
2018-09-21T23:06:06.898Z,13.47
2018-09-21T23:08:36.729Z,13.54
2018-09-21T23:11:05.838Z,13.62
2018-09-21T23:13:34.988Z,13.51
2018-09-21T23:16:04.805Z,13.42
2018-09-21T23:18:35.165Z,13.33
2018-09-21T23:21:04.734Z,13.30
2018-09-21T23:23:34.078Z,13.19
2018-09-21T23:26:03.677Z,13.11
2018-09-21T23:28:32.781Z,13.09
2018-09-21T23:31:01.921Z,13.00
2018-09-21T23:33:31.050Z,12.92
2018-09-21T23:36:00.166Z,12.84
2018-09-21T23:38:29.953Z,12.95
2018-09-21T23:40:59.136Z,12.87
2018-09-21T23:43:28.258Z,12.84
2018-09-21T23:45:57.349Z,12.90
2018-09-21T23:48:26.509Z,12.88
2018-09-21T23:50:55.194Z,12.93
2018-09-21T23:53:24.443Z,12.83
2018-09-21T23:55:53.560Z,12.71
2018-09-21T23:58:22.678Z,12.60
